Time;durP1;ratioP1;P1;durP2;ratioP2;P2;SDS_P1;SDS_P2;PMS_P1;PMS_P2;Temp;Humidity;BMP_temperature;BMP_pressure;BME280_temperature;BME280_humidity;BME280_pressure;Samples;Min_cycle;Max_cycle;Signal;HPM_P1;HPM_P2
2023/09/11 00:02:16;;;;;;;12.93;9.30;;;;;;;;;;6213580;23;20016;-83
2023/09/11 00:04:42;;;;;;;14.02;9.85;;;;;;;;;;6240994;23;20421;-83
2023/09/11 00:07:08;;;;;;;14.52;8.77;;;;;;;;;;6212898;23;20091;-83
2023/09/11 00:09:34;;;;;;;15.45;9.55;;;;;;;;;;6241770;23;20039;-83
2023/09/11 00:12:00;;;;;;;12.75;9.45;;;;;;;;;;6241179;23;20008;-83
2023/09/11 00:14:28;;;;;;;12.65;9.68;;;;;;;;;;6213422;23;20050;-83
2023/09/11 00:16:54;;;;;;;13.93;9.20;;;;;;;;;;6241107;23;20008;-84
2023/09/11 00:19:20;;;;;;;13.05;8.63;;;;;;;;;;6241026;23;20040;-83
2023/09/11 00:21:46;;;;;;;11.63;8.63;;;;;;;;;;6240988;23;20012;-83
2023/09/11 00:24:12;;;;;;;13.40;9.38;;;;;;;;;;6239036;23;20055;-83
2023/09/11 00:26:38;;;;;;;16.92;10.38;;;;;;;;;;6214620;23;20014;-83
2023/09/11 00:29:04;;;;;;;13.85;9.32;;;;;;;;;;6240637;23;20091;-84
2023/09/11 00:31:30;;;;;;;14.60;9.93;;;;;;;;;;6241553;23;20012;-83
2023/09/11 00:33:56;;;;;;;18.05;9.23;;;;;;;;;;6242212;23;20174;-83
2023/09/11 00:36:22;;;;;;;13.25;8.77;;;;;;;;;;6190409;23;20016;-83
2023/09/11 00:38:50;;;;;;;13.88;9.00;;;;;;;;;;6243169;23;20091;-83
2023/09/11 00:41:16;;;;;;;13.20;9.98;;;;;;;;;;6215505;23;20082;-83
2023/09/11 00:43:42;;;;;;;15.20;8.68;;;;;;;;;;6190267;23;20376;-83
2023/09/11 00:46:08;;;;;;;14.70;8.95;;;;;;;;;;6214991;23;20103;-83
2023/09/11 00:48:34;;;;;;;12.65;8.93;;;;;;;;;;6243104;23;20089;-83
2023/09/11 00:51:00;;;;;;;13.43;8.70;;;;;;;;;;6215294;23;20015;-83
2023/09/11 00:53:27;;;;;;;12.40;9.55;;;;;;;;;;6241608;23;20030;-83
2023/09/11 00:55:53;;;;;;;13.20;9.25;;;;;;;;;;6242650;23;20016;-83
2023/09/11 00:58:19;;;;;;;14.05;9.15;;;;;;;;;;6246205;23;20024;-83
2023/09/11 01:00:46;;;;;;;13.65;10.20;;;;;;;;;;6244798;23;20026;-82
2023/09/11 01:03:13;;;;;;;18.20;9.30;;;;;;;;;;6223544;23;20016;-83
2023/09/11 01:05:39;;;;;;;13.00;9.18;;;;;;;;;;6215817;23;20012;-83
2023/09/11 01:08:05;;;;;;;12.70;8.70;;;;;;;;;;6242138;23;20016;-83
2023/09/11 01:10:31;;;;;;;14.63;9.68;;;;;;;;;;6215407;23;20016;-83
2023/09/11 01:12:57;;;;;;;13.77;8.68;;;;;;;;;;6215232;23;20019;-83
2023/09/11 01:15:27;;;;;;;14.85;10.20;;;;;;;;;;6242210;23;20334;-83
2023/09/11 01:17:59;;;;;;;12.50;9.18;;;;;;;;;;6241158;23;20471;-83
2023/09/11 01:20:28;;;;;;;12.55;8.95;;;;;;;;;;6242347;23;20023;-84
2023/09/11 01:23:17;;;;;;;12.45;9.35;;;;;;;;;;6242184;23;20012;-83
2023/09/11 01:25:57;;;;;;;13.02;9.90;;;;;;;;;;6242241;23;20055;-83
2023/09/11 01:28:42;;;;;;;13.13;9.48;;;;;;;;;;6242101;23;20009;-84
2023/09/11 01:31:09;;;;;;;12.88;8.73;;;;;;;;;;6241271;23;20097;-84
2023/09/11 01:33:36;;;;;;;14.60;9.38;;;;;;;;;;6242219;23;20022;-84
2023/09/11 01:36:02;;;;;;;13.07;9.15;;;;;;;;;;6241452;23;20008;-83
2023/09/11 01:38:28;;;;;;;14.25;9.40;;;;;;;;;;6242272;23;20054;-84
2023/09/11 01:40:58;;;;;;;16.98;10.95;;;;;;;;;;6242211;23;20016;-84
2023/09/11 01:43:27;;;;;;;14.25;9.50;;;;;;;;;;6242253;23;20066;-84
2023/09/11 01:45:53;;;;;;;15.13;9.70;;;;;;;;;;6213668;23;20065;-83
2023/09/11 01:48:20;;;;;;;15.07;9.70;;;;;;;;;;6241618;23;20085;-84
2023/09/11 01:50:46;;;;;;;14.70;9.23;;;;;;;;;;6214735;23;20016;-84
2023/09/11 01:53:12;;;;;;;12.30;9.40;;;;;;;;;;6189195;23;20020;-84
2023/09/11 01:55:38;;;;;;;13.27;8.82;;;;;;;;;;6214955;22;20087;-83
2023/09/11 01:58:05;;;;;;;14.38;10.20;;;;;;;;;;6241900;23;20115;-84
2023/09/11 02:00:31;;;;;;;13.05;9.95;;;;;;;;;;6242110;23;20048;-84
2023/09/11 02:02:57;;;;;;;12.45;8.60;;;;;;;;;;6213487;23;20044;-84
2023/09/11 02:05:23;;;;;;;20.73;10.82;;;;;;;;;;6241356;23;20047;-83
2023/09/11 02:07:49;;;;;;;18.60;9.82;;;;;;;;;;6241540;23;20017;-84
2023/09/11 02:10:15;;;;;;;14.52;10.02;;;;;;;;;;6241409;23;20022;-84
2023/09/11 02:12:41;;;;;;;12.35;9.48;;;;;;;;;;6215210;23;20023;-84
2023/09/11 02:15:07;;;;;;;17.05;9.80;;;;;;;;;;6214564;23;20016;-84
2023/09/11 02:17:33;;;;;;;14.55;9.65;;;;;;;;;;6214236;23;20051;-84
2023/09/11 02:19:59;;;;;;;11.18;9.80;;;;;;;;;;6240319;23;20020;-84
2023/09/11 02:22:25;;;;;;;15.63;9.85;;;;;;;;;;6214688;23;20343;-84
2023/09/11 02:24:51;;;;;;;17.02;11.10;;;;;;;;;;6241416;23;20023;-83
2023/09/11 02:27:17;;;;;;;16.10;10.10;;;;;;;;;;6241292;23;20369;-83
2023/09/11 02:29:43;;;;;;;14.32;9.63;;;;;;;;;;6241755;23;20047;-84
2023/09/11 02:32:09;;;;;;;16.52;10.48;;;;;;;;;;6240338;23;20333;-83
2023/09/11 02:34:35;;;;;;;17.33;10.35;;;;;;;;;;6241522;23;20043;-84
2023/09/11 02:37:01;;;;;;;15.93;10.27;;;;;;;;;;6240483;23;20023;-84
2023/09/11 02:39:28;;;;;;;15.13;9.98;;;;;;;;;;6214730;23;20023;-84
2023/09/11 02:41:54;;;;;;;13.15;10.10;;;;;;;;;;6214166;23;20074;-84
2023/09/11 02:44:20;;;;;;;17.77;10.98;;;;;;;;;;6241514;23;20012;-84
2023/09/11 02:46:46;;;;;;;17.00;10.75;;;;;;;;;;6241445;23;20058;-84
2023/09/11 02:49:12;;;;;;;14.95;10.85;;;;;;;;;;6213792;23;20507;-84
2023/09/11 02:51:38;;;;;;;16.65;10.88;;;;;;;;;;6189366;23;20082;-84
2023/09/11 02:54:04;;;;;;;15.80;9.95;;;;;;;;;;6238932;23;20017;-84
2023/09/11 02:56:30;;;;;;;15.82;10.65;;;;;;;;;;6238517;23;20016;-84
2023/09/11 02:58:56;;;;;;;15.88;10.85;;;;;;;;;;6240772;23;20027;-84
2023/09/11 03:01:22;;;;;;;15.07;10.15;;;;;;;;;;6213969;23;20070;-84
2023/09/11 03:03:48;;;;;;;20.70;11.18;;;;;;;;;;6215249;23;20035;-84
2023/09/11 03:06:14;;;;;;;16.60;10.30;;;;;;;;;;6240149;23;20016;-84
2023/09/11 03:08:40;;;;;;;14.88;10.30;;;;;;;;;;6214688;23;20022;-84
2023/09/11 03:11:09;;;;;;;16.92;10.27;;;;;;;;;;6240405;23;20008;-84
2023/09/11 03:13:35;;;;;;;13.75;9.60;;;;;;;;;;6241793;23;20330;-83
2023/09/11 03:16:16;;;;;;;14.95;10.50;;;;;;;;;;6212849;23;20012;-84
2023/09/11 03:18:43;;;;;;;18.15;9.40;;;;;;;;;;6241389;23;20016;-84
2023/09/11 03:21:09;;;;;;;12.55;9.75;;;;;;;;;;6213395;23;20098;-83
2023/09/11 03:23:36;;;;;;;13.50;9.35;;;;;;;;;;6241710;23;20039;-84
2023/09/11 03:26:02;;;;;;;17.25;10.18;;;;;;;;;;6240438;23;20012;-84
2023/09/11 03:28:28;;;;;;;12.18;9.93;;;;;;;;;;6240301;23;20016;-84
2023/09/11 03:30:55;;;;;;;17.42;10.18;;;;;;;;;;6241197;23;20334;-84
2023/09/11 03:33:21;;;;;;;15.30;10.23;;;;;;;;;;6241322;23;20012;-84
2023/09/11 03:35:47;;;;;;;12.18;9.57;;;;;;;;;;6240584;23;20039;-84
2023/09/11 03:38:13;;;;;;;15.18;10.20;;;;;;;;;;6240350;23;20066;-84
2023/09/11 03:40:41;;;;;;;14.75;10.23;;;;;;;;;;6241735;23;20018;-83
2023/09/11 03:43:07;;;;;;;13.45;9.93;;;;;;;;;;6212920;23;20079;-84
2023/09/11 03:45:33;;;;;;;17.65;10.27;;;;;;;;;;6239885;23;20012;-84
2023/09/11 03:47:59;;;;;;;15.82;10.73;;;;;;;;;;6211256;23;20390;-84
2023/09/11 03:50:25;;;;;;;18.60;10.88;;;;;;;;;;6213805;23;20059;-84
2023/09/11 03:52:51;;;;;;;15.60;10.25;;;;;;;;;;6214113;23;20019;-84
2023/09/11 03:55:17;;;;;;;20.73;10.35;;;;;;;;;;6213149;23;20016;-84
2023/09/11 03:57:43;;;;;;;16.85;10.60;;;;;;;;;;6213484;23;20564;-84
2023/09/11 04:00:10;;;;;;;18.40;11.43;;;;;;;;;;6240923;23;20016;-83
2023/09/11 04:02:38;;;;;;;13.48;10.75;;;;;;;;;;6241625;23;20016;-84
2023/09/11 04:05:05;;;;;;;14.18;9.90;;;;;;;;;;6240081;23;20018;-84
2023/09/11 04:07:32;;;;;;;14.73;10.02;;;;;;;;;;6242376;23;20031;-84
2023/09/11 04:09:58;;;;;;;16.20;10.73;;;;;;;;;;6242387;23;20465;-84
2023/09/11 04:12:24;;;;;;;17.15;10.63;;;;;;;;;;6242601;23;20050;-83
2023/09/11 04:14:51;;;;;;;14.50;10.88;;;;;;;;;;6242479;23;20020;-84
2023/09/11 04:17:16;;;;;;;14.00;10.38;;;;;;;;;;6215773;23;20342;-84
2023/09/11 04:19:43;;;;;;;16.92;11.07;;;;;;;;;;6243515;23;20016;-84
2023/09/11 04:22:10;;;;;;;17.17;9.70;;;;;;;;;;6214388;23;20028;-84
2023/09/11 04:24:36;;;;;;;18.25;10.20;;;;;;;;;;6216224;23;20016;-83
2023/09/11 04:27:02;;;;;;;13.95;10.50;;;;;;;;;;6242055;23;20384;-84
2023/09/11 04:29:31;;;;;;;18.63;10.43;;;;;;;;;;6215102;23;20035;-83
2023/09/11 04:31:57;;;;;;;15.82;9.93;;;;;;;;;;6241690;23;20372;-84
2023/09/11 04:34:23;;;;;;;16.13;10.20;;;;;;;;;;6242218;23;20349;-84
2023/09/11 04:36:48;;;;;;;19.83;10.40;;;;;;;;;;6243309;23;20023;-84
2023/09/11 04:39:14;;;;;;;16.38;9.88;;;;;;;;;;6189889;23;20144;-84
2023/09/11 04:41:40;;;;;;;14.73;9.52;;;;;;;;;;6213900;23;20047;-81
2023/09/11 04:44:06;;;;;;;13.43;9.98;;;;;;;;;;6213471;23;20341;-84
2023/09/11 04:46:33;;;;;;;19.60;10.50;;;;;;;;;;6243168;23;20055;-84
2023/09/11 04:48:58;;;;;;;17.77;10.52;;;;;;;;;;6215177;23;20024;-82
2023/09/11 04:51:25;;;;;;;14.95;9.95;;;;;;;;;;6242404;23;20334;-83
2023/09/11 04:53:51;;;;;;;12.98;9.93;;;;;;;;;;6242714;23;20035;-85
2023/09/11 04:56:17;;;;;;;18.23;10.13;;;;;;;;;;6241033;23;20462;-84
2023/09/11 04:58:43;;;;;;;16.83;9.40;;;;;;;;;;6242923;23;20076;-84
2023/09/11 05:01:09;;;;;;;16.42;9.90;;;;;;;;;;6241616;23;20024;-83
2023/09/11 05:03:35;;;;;;;16.52;10.18;;;;;;;;;;6241316;23;20012;-83
2023/09/11 05:06:01;;;;;;;12.88;10.55;;;;;;;;;;6241871;23;20397;-82
2023/09/11 05:08:27;;;;;;;18.60;10.35;;;;;;;;;;6241561;23;20091;-82
2023/09/11 05:10:53;;;;;;;14.95;10.18;;;;;;;;;;6241617;23;20349;-82
2023/09/11 05:13:19;;;;;;;14.95;10.90;;;;;;;;;;6242401;23;20018;-84
2023/09/11 05:15:48;;;;;;;15.23;10.25;;;;;;;;;;6242275;23;20338;-83
2023/09/11 05:18:14;;;;;;;17.98;10.15;;;;;;;;;;6240815;23;20382;-82
2023/09/11 05:20:40;;;;;;;15.57;10.32;;;;;;;;;;6242476;23;20012;-83
2023/09/11 05:23:06;;;;;;;17.25;11.35;;;;;;;;;;6214413;23;20023;-83
2023/09/11 05:25:32;;;;;;;12.00;9.52;;;;;;;;;;6241648;23;20047;-84
2023/09/11 05:27:58;;;;;;;14.20;9.90;;;;;;;;;;6241506;23;20023;-82
2023/09/11 05:30:24;;;;;;;17.73;11.05;;;;;;;;;;6242514;23;20008;-85
2023/09/11 05:32:52;;;;;;;17.30;10.38;;;;;;;;;;6242151;23;20062;-81
2023/09/11 05:35:19;;;;;;;16.67;10.43;;;;;;;;;;6240985;23;20372;-83
2023/09/11 05:37:45;;;;;;;16.17;10.63;;;;;;;;;;6241676;23;20358;-82
2023/09/11 05:40:11;;;;;;;15.00;10.32;;;;;;;;;;6240714;23;20030;-83
2023/09/11 05:42:37;;;;;;;13.85;10.25;;;;;;;;;;6241340;23;20095;-82
2023/09/11 05:45:03;;;;;;;14.77;10.18;;;;;;;;;;6241392;23;20027;-83
2023/09/11 05:47:29;;;;;;;13.60;10.10;;;;;;;;;;6241901;23;20114;-81
2023/09/11 05:50:00;;;;;;;13.07;9.98;;;;;;;;;;6213777;23;20442;-81
2023/09/11 05:52:26;;;;;;;16.92;10.45;;;;;;;;;;6241321;23;20066;-82
2023/09/11 05:54:52;;;;;;;16.02;11.27;;;;;;;;;;6213137;23;20016;-82
2023/09/11 05:57:18;;;;;;;16.73;9.85;;;;;;;;;;6213334;23;20020;-82
2023/09/11 05:59:45;;;;;;;15.02;9.68;;;;;;;;;;6214056;23;20043;-82
2023/09/11 06:02:12;;;;;;;17.38;10.38;;;;;;;;;;6238953;23;20059;-82
2023/09/11 06:04:38;;;;;;;16.00;9.98;;;;;;;;;;6242037;23;20008;-81
2023/09/11 06:07:04;;;;;;;13.50;9.70;;;;;;;;;;6239836;23;20079;-82
2023/09/11 06:09:30;;;;;;;19.08;10.77;;;;;;;;;;6213280;23;20314;-83
2023/09/11 06:11:56;;;;;;;19.55;9.80;;;;;;;;;;6241054;23;20038;-82
2023/09/11 06:14:23;;;;;;;17.20;9.43;;;;;;;;;;6239792;23;20012;-82
2023/09/11 06:16:50;;;;;;;15.77;9.68;;;;;;;;;;6239824;23;20413;-82
2023/09/11 06:19:16;;;;;;;16.88;9.93;;;;;;;;;;6238645;23;20078;-82
2023/09/11 06:21:45;;;;;;;13.07;10.23;;;;;;;;;;6241127;23;20016;-82
2023/09/11 06:24:11;;;;;;;17.38;10.10;;;;;;;;;;6238730;23;20031;-82
2023/09/11 06:26:37;;;;;;;12.73;9.25;;;;;;;;;;6241593;23;20038;-83
2023/09/11 06:29:03;;;;;;;13.88;9.50;;;;;;;;;;6239763;23;20012;-84
2023/09/11 06:31:30;;;;;;;14.82;10.27;;;;;;;;;;6213545;23;20020;-85
2023/09/11 06:33:56;;;;;;;15.30;9.27;;;;;;;;;;6240183;23;20062;-85
2023/09/11 06:36:22;;;;;;;20.10;9.65;;;;;;;;;;6214124;23;20014;-86
2023/09/11 06:38:48;;;;;;;15.25;10.45;;;;;;;;;;6239085;23;20087;-86
2023/09/11 06:41:14;;;;;;;12.23;9.82;;;;;;;;;;6213110;23;20338;-85
2023/09/11 06:43:42;;;;;;;17.27;10.07;;;;;;;;;;6241900;23;20012;-85
2023/09/11 06:46:08;;;;;;;19.15;10.38;;;;;;;;;;6241013;23;20046;-85
2023/09/11 06:48:34;;;;;;;19.15;10.45;;;;;;;;;;6214330;23;20020;-88
2023/09/11 06:51:00;;;;;;;17.58;10.00;;;;;;;;;;6242701;23;20342;-90
2023/09/11 06:53:26;;;;;;;17.50;10.85;;;;;;;;;;6241140;23;20012;-90
2023/09/11 06:55:53;;;;;;;12.32;9.32;;;;;;;;;;6213592;23;20013;-88
2023/09/11 06:58:20;;;;;;;15.98;10.55;;;;;;;;;;6242145;23;20020;-87
2023/09/11 07:00:46;;;;;;;17.15;10.13;;;;;;;;;;6243564;23;20016;-88
2023/09/11 07:03:12;;;;;;;20.45;11.18;;;;;;;;;;6242258;23;20047;-89
2023/09/11 07:05:39;;;;;;;16.10;10.07;;;;;;;;;;6242364;23;20020;-89
2023/09/11 07:08:05;;;;;;;17.85;10.45;;;;;;;;;;6240265;23;20062;-89
2023/09/11 07:10:31;;;;;;;16.52;10.38;;;;;;;;;;6241014;23;20012;-90
2023/09/11 07:12:57;;;;;;;17.83;11.02;;;;;;;;;;6213972;23;20019;-90
2023/09/11 07:15:23;;;;;;;15.20;10.88;;;;;;;;;;6214364;23;20053;-89
2023/09/11 07:17:51;;;;;;;16.50;10.57;;;;;;;;;;6189111;23;20027;-89
2023/09/11 07:20:17;;;;;;;15.18;9.77;;;;;;;;;;6214014;23;20023;-89
2023/09/11 07:22:43;;;;;;;17.42;11.05;;;;;;;;;;6214235;23;20020;-89
2023/09/11 07:25:12;;;;;;;19.00;10.80;;;;;;;;;;6240818;23;20076;-89
2023/09/11 07:27:38;;;;;;;14.88;9.75;;;;;;;;;;6214477;23;20106;-89
2023/09/11 07:30:05;;;;;;;16.58;10.10;;;;;;;;;;6213756;23;20023;-89
2023/09/11 07:32:32;;;;;;;15.65;9.27;;;;;;;;;;6241527;23;20013;-89
2023/09/11 07:34:58;;;;;;;15.77;9.20;;;;;;;;;;6240700;23;20016;-89
2023/09/11 07:37:24;;;;;;;15.18;9.52;;;;;;;;;;6241607;23;20112;-89
2023/09/11 07:39:50;;;;;;;16.17;9.55;;;;;;;;;;6214523;23;20023;-89
2023/09/11 07:42:16;;;;;;;15.82;9.25;;;;;;;;;;6243136;23;20012;-90
2023/09/11 07:44:45;;;;;;;11.98;8.65;;;;;;;;;;6243526;23;20008;-88
2023/09/11 07:47:12;;;;;;;13.52;8.70;;;;;;;;;;6215386;23;20044;-89
2023/09/11 07:49:38;;;;;;;15.45;10.10;;;;;;;;;;6242898;23;20074;-88
2023/09/11 07:52:04;;;;;;;14.27;9.82;;;;;;;;;;6215672;23;20012;-89
2023/09/11 07:54:30;;;;;;;13.23;9.35;;;;;;;;;;6216492;23;20023;-88
2023/09/11 07:56:56;;;;;;;16.33;9.63;;;;;;;;;;6242336;22;20023;-89
2023/09/11 07:59:22;;;;;;;11.60;9.55;;;;;;;;;;6215889;23;20446;-88
2023/09/11 08:01:48;;;;;;;16.70;8.25;;;;;;;;;;6216418;23;20453;-89
2023/09/11 08:04:15;;;;;;;13.25;8.45;;;;;;;;;;6215268;23;20026;-88
2023/09/11 08:06:41;;;;;;;15.15;9.13;;;;;;;;;;6216772;23;20048;-88
2023/09/11 08:09:07;;;;;;;12.43;8.52;;;;;;;;;;6215671;23;20016;-89
2023/09/11 08:11:37;;;;;;;13.73;7.90;;;;;;;;;;6215981;23;20012;-89
2023/09/11 08:14:04;;;;;;;13.25;8.25;;;;;;;;;;6215175;23;20449;-89
2023/09/11 08:16:30;;;;;;;13.68;7.47;;;;;;;;;;6216110;23;20016;-89
2023/09/11 08:18:56;;;;;;;11.07;8.15;;;;;;;;;;6215439;23;20028;-89
2023/09/11 08:21:22;;;;;;;12.43;8.35;;;;;;;;;;6215813;23;20022;-89
2023/09/11 08:23:48;;;;;;;12.75;8.98;;;;;;;;;;6216140;23;20027;-89
2023/09/11 08:26:14;;;;;;;10.77;7.20;;;;;;;;;;6215542;23;20027;-89
2023/09/11 08:28:41;;;;;;;12.00;8.18;;;;;;;;;;6215731;23;20016;-88
2023/09/11 08:31:07;;;;;;;11.77;7.97;;;;;;;;;;6215188;23;20020;-88
2023/09/11 08:33:33;;;;;;;10.27;8.13;;;;;;;;;;6215681;23;20318;-90
2023/09/11 08:35:59;;;;;;;10.35;7.00;;;;;;;;;;6215298;23;20072;-88
2023/09/11 08:38:25;;;;;;;10.07;8.10;;;;;;;;;;6242973;23;20073;-89
2023/09/11 08:40:52;;;;;;;11.45;7.47;;;;;;;;;;6242916;23;20027;-89
2023/09/11 08:43:24;;;;;;;11.35;7.85;;;;;;;;;;6214965;23;20046;-89
2023/09/11 08:45:51;;;;;;;9.45;7.75;;;;;;;;;;6215743;23;20018;-87
2023/09/11 08:48:18;;;;;;;12.93;8.90;;;;;;;;;;6214749;23;20048;-88
2023/09/11 08:50:52;;;;;;;12.40;8.23;;;;;;;;;;6243187;23;20019;-88
2023/09/11 08:53:19;;;;;;;12.35;8.40;;;;;;;;;;6215280;23;20345;-88
2023/09/11 08:55:47;;;;;;;10.73;7.68;;;;;;;;;;6215874;22;20012;-88
2023/09/11 08:58:15;;;;;;;15.07;8.05;;;;;;;;;;6215219;23;20020;-87
2023/09/11 09:00:41;;;;;;;13.10;8.43;;;;;;;;;;6216078;23;20019;-88
2023/09/11 09:03:08;;;;;;;11.93;7.18;;;;;;;;;;6214212;23;20047;-90
2023/09/11 09:05:34;;;;;;;10.95;8.75;;;;;;;;;;6213977;23;20051;-87
2023/09/11 09:08:02;;;;;;;11.18;7.63;;;;;;;;;;6240760;23;20043;-86
2023/09/11 09:10:28;;;;;;;9.85;7.97;;;;;;;;;;6241293;23;20024;-87
2023/09/11 09:12:55;;;;;;;14.57;7.90;;;;;;;;;;6214583;23;20020;-87
2023/09/11 09:15:21;;;;;;;9.77;8.43;;;;;;;;;;6214382;23;20318;-88
2023/09/11 09:17:48;;;;;;;13.18;9.02;;;;;;;;;;6213846;23;20118;-87
2023/09/11 09:20:16;;;;;;;12.65;7.70;;;;;;;;;;6240920;23;20502;-88
2023/09/11 09:22:55;;;;;;;11.68;7.50;;;;;;;;;;6215718;23;20044;-86
2023/09/11 09:25:21;;;;;;;12.50;7.97;;;;;;;;;;6189802;23;20016;-86
2023/09/11 09:27:47;;;;;;;10.65;8.13;;;;;;;;;;6241035;23;20143;-86
2023/09/11 09:30:26;;;;;;;8.68;7.43;;;;;;;;;;6213866;23;20070;-85
2023/09/11 09:32:53;;;;;;;11.05;8.13;;;;;;;;;;6240285;23;20012;-85
2023/09/11 09:35:23;;;;;;;10.82;8.50;;;;;;;;;;6215050;23;20011;-87
2023/09/11 09:37:50;;;;;;;12.15;7.35;;;;;;;;;;6214611;23;20441;-86
2023/09/11 09:40:27;;;;;;;14.18;8.30;;;;;;;;;;6240879;23;20016;-85
2023/09/11 09:42:53;;;;;;;11.98;8.50;;;;;;;;;;6215308;23;20016;-89
2023/09/11 09:45:33;;;;;;;11.95;7.97;;;;;;;;;;6213977;23;20020;-88
2023/09/11 09:48:16;;;;;;;10.57;7.50;;;;;;;;;;6239774;23;20012;-87
2023/09/11 09:50:50;;;;;;;10.38;7.72;;;;;;;;;;6241222;23;20016;-87
2023/09/11 09:53:26;;;;;;;9.07;7.15;;;;;;;;;;6240551;23;20016;-87
2023/09/11 09:55:52;;;;;;;9.32;7.78;;;;;;;;;;6214203;22;20059;-87
2023/09/11 09:58:24;;;;;;;9.32;7.00;;;;;;;;;;6189062;23;20348;-89
2023/09/11 10:00:51;;;;;;;8.38;6.65;;;;;;;;;;6187662;23;20345;-86
2023/09/11 10:03:17;;;;;;;10.57;7.43;;;;;;;;;;6213012;23;20026;-88
2023/09/11 10:05:47;;;;;;;10.60;7.10;;;;;;;;;;6240453;23;20023;-91
2023/09/11 10:08:15;;;;;;;12.10;7.38;;;;;;;;;;6188176;23;20127;-87
2023/09/11 10:10:41;;;;;;;10.32;7.78;;;;;;;;;;6213999;23;20315;-91
2023/09/11 10:13:08;;;;;;;10.48;7.97;;;;;;;;;;6212025;23;20046;-86
2023/09/11 10:15:35;;;;;;;9.38;7.57;;;;;;;;;;6213498;23;20039;-84
2023/09/11 10:18:02;;;;;;;11.40;7.53;;;;;;;;;;6214010;23;20043;-84
2023/09/11 10:20:32;;;;;;;13.13;8.40;;;;;;;;;;6213758;23;20617;-84
2023/09/11 10:23:01;;;;;;;8.10;7.30;;;;;;;;;;6239669;23;20020;-86
2023/09/11 10:25:29;;;;;;;10.35;8.18;;;;;;;;;;6214340;23;20544;-85
2023/09/11 10:28:02;;;;;;;10.80;7.32;;;;;;;;;;6214019;23;20024;-86
2023/09/11 10:30:35;;;;;;;10.80;7.38;;;;;;;;;;6213613;23;20498;-85
2023/09/11 10:33:02;;;;;;;9.18;7.40;;;;;;;;;;6212127;23;20016;-87
2023/09/11 10:35:30;;;;;;;8.93;7.07;;;;;;;;;;6213845;23;20024;-85
2023/09/11 10:37:57;;;;;;;7.97;6.82;;;;;;;;;;6214137;23;20039;-86
2023/09/11 10:40:29;;;;;;;10.73;7.50;;;;;;;;;;6213437;23;20043;-86
2023/09/11 10:42:55;;;;;;;9.45;6.72;;;;;;;;;;6240670;23;20338;-87
2023/09/11 10:45:25;;;;;;;9.52;6.90;;;;;;;;;;6188670;23;20206;-85
2023/09/11 10:47:51;;;;;;;9.45;6.90;;;;;;;;;;6238409;23;20013;-87
2023/09/11 10:50:17;;;;;;;9.63;7.30;;;;;;;;;;6238859;23;20156;-86
2023/09/11 10:52:45;;;;;;;10.63;8.07;;;;;;;;;;6213417;23;20016;-86
2023/09/11 10:55:12;;;;;;;14.70;9.50;;;;;;;;;;6214264;23;20042;-84
2023/09/11 10:57:38;;;;;;;11.63;8.15;;;;;;;;;;6212323;23;20047;-86
2023/09/11 11:00:05;;;;;;;12.73;7.53;;;;;;;;;;6238072;23;20048;-85
2023/09/11 11:02:31;;;;;;;10.07;9.05;;;;;;;;;;6213109;23;20012;-85
2023/09/11 11:04:58;;;;;;;8.93;7.55;;;;;;;;;;6213234;23;20335;-83
2023/09/11 11:07:24;;;;;;;10.25;7.70;;;;;;;;;;6241034;23;20100;-86
2023/09/11 11:09:53;;;;;;;7.43;6.53;;;;;;;;;;6214200;23;20012;-85
2023/09/11 11:12:31;;;;;;;11.45;7.95;;;;;;;;;;6213334;23;20012;-85
2023/09/11 11:15:16;;;;;;;7.80;6.18;;;;;;;;;;6238423;23;20384;-83
2023/09/11 11:17:42;;;;;;;14.27;8.90;;;;;;;;;;6214218;23;20028;-82
2023/09/11 11:20:09;;;;;;;11.65;8.80;;;;;;;;;;6212283;23;20098;-82
2023/09/11 11:22:39;;;;;;;9.73;8.02;;;;;;;;;;6213829;23;20020;-82
2023/09/11 11:25:08;;;;;;;10.65;7.38;;;;;;;;;;6188935;23;20023;-82
2023/09/11 11:27:35;;;;;;;10.57;7.50;;;;;;;;;;6213781;23;20026;-82
2023/09/11 11:30:02;;;;;;;9.35;7.05;;;;;;;;;;6211714;23;20016;-79
2023/09/11 11:32:30;;;;;;;14.07;7.88;;;;;;;;;;6212433;23;20477;-79
2023/09/11 11:34:58;;;;;;;13.85;8.60;;;;;;;;;;6212725;23;20017;-80
2023/09/11 11:37:25;;;;;;;11.52;7.30;;;;;;;;;;6214534;23;20016;-80
2023/09/11 11:39:51;;;;;;;9.40;7.75;;;;;;;;;;6188290;23;20058;-80
2023/09/11 11:42:17;;;;;;;10.48;8.25;;;;;;;;;;6213128;23;20019;-80
2023/09/11 11:44:43;;;;;;;10.00;7.97;;;;;;;;;;6241716;23;20009;-79
2023/09/11 11:47:09;;;;;;;8.88;7.18;;;;;;;;;;6213314;23;20066;-79
2023/09/11 11:49:36;;;;;;;8.82;7.68;;;;;;;;;;6213643;23;20012;-79
2023/09/11 11:52:03;;;;;;;11.00;7.53;;;;;;;;;;6241149;23;20329;-80
2023/09/11 11:54:29;;;;;;;8.43;6.60;;;;;;;;;;6214365;23;20016;-79
2023/09/11 11:57:05;;;;;;;11.10;7.18;;;;;;;;;;6213080;23;20058;-80
2023/09/11 11:59:32;;;;;;;8.82;6.38;;;;;;;;;;6213268;23;20015;-79
2023/09/11 12:01:59;;;;;;;10.63;7.15;;;;;;;;;;6240713;23;20012;-79
2023/09/11 12:04:25;;;;;;;10.50;6.93;;;;;;;;;;6214441;23;20016;-79
2023/09/11 12:06:52;;;;;;;7.53;5.88;;;;;;;;;;6241310;23;20012;-79
2023/09/11 12:09:19;;;;;;;8.98;7.00;;;;;;;;;;6212972;23;20012;-81
2023/09/11 12:11:45;;;;;;;7.53;5.70;;;;;;;;;;6240837;23;20008;-79
2023/09/11 12:14:15;;;;;;;9.25;6.85;;;;;;;;;;6188487;23;20016;-79
2023/09/11 12:16:41;;;;;;;6.70;5.85;;;;;;;;;;6239973;23;20008;-80
2023/09/11 12:19:07;;;;;;;9.68;5.80;;;;;;;;;;6213073;23;20446;-80
2023/09/11 12:21:33;;;;;;;9.07;5.47;;;;;;;;;;6211403;23;20016;-79
2023/09/11 12:24:00;;;;;;;8.48;5.97;;;;;;;;;;6210835;23;20020;-80
2023/09/11 12:26:27;;;;;;;6.55;5.70;;;;;;;;;;6237019;23;20012;-79
2023/09/11 12:28:54;;;;;;;6.35;5.15;;;;;;;;;;6190352;23;20008;-80
2023/09/11 12:31:20;;;;;;;7.47;5.72;;;;;;;;;;6241451;23;20015;-79
2023/09/11 12:33:53;;;;;;;8.68;6.15;;;;;;;;;;6243043;23;20012;-80
2023/09/11 12:36:22;;;;;;;8.27;5.53;;;;;;;;;;6215389;23;20062;-80
2023/09/11 12:38:49;;;;;;;7.05;6.00;;;;;;;;;;6215930;23;20058;-79
2023/09/11 12:41:18;;;;;;;8.75;5.88;;;;;;;;;;6241769;23;20086;-79
2023/09/11 12:43:45;;;;;;;7.55;5.85;;;;;;;;;;6243304;23;20043;-80
2023/09/11 12:46:15;;;;;;;8.98;5.60;;;;;;;;;;6213415;23;20437;-78
2023/09/11 12:48:43;;;;;;;6.07;5.50;;;;;;;;;;6243017;23;20028;-79
2023/09/11 12:51:09;;;;;;;8.18;5.30;;;;;;;;;;6214497;23;20412;-79
2023/09/11 12:53:36;;;;;;;5.88;4.85;;;;;;;;;;6215970;23;20015;-79
2023/09/11 12:56:02;;;;;;;5.95;4.88;;;;;;;;;;6240869;23;20051;-78
2023/09/11 12:58:28;;;;;;;5.43;4.93;;;;;;;;;;6215097;23;20016;-79
2023/09/11 13:00:54;;;;;;;6.18;4.63;;;;;;;;;;6215248;23;20016;-78
2023/09/11 13:03:21;;;;;;;7.25;5.13;;;;;;;;;;6241657;23;20371;-79
2023/09/11 13:05:48;;;;;;;5.40;4.80;;;;;;;;;;6216224;23;20015;-79
2023/09/11 13:08:17;;;;;;;7.50;5.53;;;;;;;;;;6241547;23;20016;-78
2023/09/11 13:10:43;;;;;;;7.43;5.72;;;;;;;;;;6241862;23;20008;-78
2023/09/11 13:13:09;;;;;;;8.43;5.05;;;;;;;;;;6213877;23;20062;-78
2023/09/11 13:15:35;;;;;;;6.47;5.88;;;;;;;;;;6242790;23;20008;-79
2023/09/11 13:18:02;;;;;;;6.85;4.68;;;;;;;;;;6214812;23;20020;-78
2023/09/11 13:20:28;;;;;;;7.18;6.28;;;;;;;;;;6242467;23;20019;-78
2023/09/11 13:22:54;;;;;;;8.32;5.38;;;;;;;;;;6213908;23;20051;-79
2023/09/11 13:25:20;;;;;;;6.00;5.35;;;;;;;;;;6241261;23;20012;-79
2023/09/11 13:27:46;;;;;;;8.02;5.57;;;;;;;;;;6214696;23;20022;-78
2023/09/11 13:30:12;;;;;;;6.22;5.63;;;;;;;;;;6240908;23;20012;-77
2023/09/11 13:32:40;;;;;;;10.38;7.05;;;;;;;;;;6242200;23;20008;-77
2023/09/11 13:35:06;;;;;;;7.30;6.05;;;;;;;;;;6214512;23;20016;-78
2023/09/11 13:37:32;;;;;;;7.20;5.63;;;;;;;;;;6240712;23;20013;-78
2023/09/11 13:39:58;;;;;;;6.07;5.47;;;;;;;;;;6213715;23;20008;-78
2023/09/11 13:42:25;;;;;;;5.68;5.13;;;;;;;;;;6241965;23;20012;-78
2023/09/11 13:44:55;;;;;;;6.10;4.60;;;;;;;;;;6241344;23;20012;-78
2023/09/11 13:47:21;;;;;;;5.15;4.07;;;;;;;;;;6241902;23;20063;-79
2023/09/11 13:49:47;;;;;;;7.40;4.25;;;;;;;;;;6215005;23;20012;-79
2023/09/11 13:52:14;;;;;;;5.50;3.80;;;;;;;;;;6213836;23;20034;-79
2023/09/11 13:54:40;;;;;;;4.25;3.33;;;;;;;;;;6215121;23;20008;-77
2023/09/11 13:57:07;;;;;;;4.80;4.25;;;;;;;;;;6214403;23;20390;-78
2023/09/11 13:59:33;;;;;;;6.97;4.00;;;;;;;;;;6242100;23;20024;-78
2023/09/11 14:01:59;;;;;;;7.45;3.88;;;;;;;;;;6241555;23;20016;-79
2023/09/11 14:04:25;;;;;;;4.18;3.30;;;;;;;;;;6214269;23;20012;-78
2023/09/11 14:06:51;;;;;;;4.32;3.33;;;;;;;;;;6214204;23;20099;-78
2023/09/11 14:09:17;;;;;;;5.13;3.78;;;;;;;;;;6214820;23;20016;-78
2023/09/11 14:11:43;;;;;;;5.35;3.22;;;;;;;;;;6215137;23;20008;-77
2023/09/11 14:14:09;;;;;;;6.10;3.75;;;;;;;;;;6214098;23;20420;-77
2023/09/11 14:16:35;;;;;;;4.43;3.80;;;;;;;;;;6214618;23;20012;-78
2023/09/11 14:19:03;;;;;;;3.63;3.22;;;;;;;;;;6214237;23;20023;-78
2023/09/11 14:21:29;;;;;;;4.20;3.38;;;;;;;;;;6213950;23;20019;-78
2023/09/11 14:23:55;;;;;;;3.58;3.15;;;;;;;;;;6214105;23;20099;-78
2023/09/11 14:26:22;;;;;;;5.70;3.53;;;;;;;;;;6213875;23;20023;-78
2023/09/11 14:28:48;;;;;;;4.15;3.53;;;;;;;;;;6214851;23;20016;-78